Language: 


Des rapports , des résumés tant et plus, au choix de chacun....


Données Historiques de Météogheer
Journalier Rapport pour Janvier 18, 2017 Unitée:  Les deux    Impériale   Métrique
Suivant Jour »
Journalier Hebdomadaire Mensuel Annuel Sur mesure
  Max: Min: Moyenne:
Température: 34.9 °F /  1.6 °C 24.8 °F /  -4.0 °C 28.4 °F /  -2 °C
Point de rosée: 30.2 °F /  -1.0 °C 23.5 °F /  -4.7 °C 26.6 °F /  -3 °C
Humidité: 98% 0% 93%
Vent: 9.4mph /  15.1km/h - 5.3mph /  8.6km/h
Rafales: 11.4mph /  18.3km/h - -
Vent- - ENE
Pression: 30.7 in /  1038.1 hPa 0 in /  0.0 hPa -
Pluie: 0 in /  0.0 mm    
Historical Graphs
 
 
Données tabulaires pour Janvier 18, 2017
Heure Température Point de rosée Pression Vent Vent Rafales Humidité Pluie Taux (Horaire) Conditions
00:00 27.7 °F /  -2.4 °C 26.2 °F /  -3.2 °C 30.6in /  1037.1hPa NE 3.8mph /  6.1km/h 6mph /  9.7km/h 95% 0in /  0.0mm
00:05 27.7 °F /  -2.4 °C 26.2 °F /  -3.2 °C 30.6in /  1037.1hPa ENE 3.6mph /  5.8km/h 5.4mph /  8.7km/h 95% 0in /  0.0mm
00:11 27.3 °F /  -2.6 °C 25.9 °F /  -3.4 °C 30.6in /  1037.1hPa ENE 3.1mph /  5.0km/h 5.4mph /  8.7km/h 94% 0in /  0.0mm
00:16 27.1 °F /  -2.7 °C 25.7 °F /  -3.5 °C 30.6in /  1037.1hPa ENE 2.7mph /  4.3km/h 4mph /  6.4km/h 94% 0in /  0.0mm
00:21 27.1 °F /  -2.7 °C 25.5 °F /  -3.6 °C 30.6in /  1037.1hPa NE 3.1mph /  5.0km/h 4mph /  6.4km/h 94% 0in /  0.0mm
00:26 27.1 °F /  -2.7 °C 25.7 °F /  -3.5 °C 30.6in /  1037.1hPa NE 4.3mph /  6.9km/h 5.6mph /  9.0km/h 94% 0in /  0.0mm
00:31 27.1 °F /  -2.7 °C 26.1 °F /  -3.3 °C 30.6in /  1037.1hPa NE 4mph /  6.4km/h 5.6mph /  9.0km/h 95% 0in /  0.0mm
00:36 27.1 °F /  -2.7 °C 26.1 °F /  -3.3 °C 30.6in /  1037.1hPa NE 3.1mph /  5.0km/h 6mph /  9.7km/h 95% 0in /  0.0mm
00:41 27.1 °F /  -2.7 °C 25.9 °F /  -3.4 °C 30.6in /  1037.1hPa NE 3.6mph /  5.8km/h 6mph /  9.7km/h 95% 0in /  0.0mm
00:46 27.1 °F /  -2.7 °C 25.9 °F /  -3.4 °C 30.6in /  1037.1hPa North 4mph /  6.4km/h 6.5mph /  10.5km/h 95% 0in /  0.0mm
00:51 27.1 °F /  -2.7 °C 25.9 °F /  -3.4 °C 30.6in /  1037.1hPa North 6.3mph /  10.1km/h 6.5mph /  10.5km/h 95% 0in /  0.0mm
00:56 27.1 °F /  -2.7 °C 25.9 °F /  -3.4 °C 30.6in /  1037.1hPa North 6.3mph /  10.1km/h 7.2mph /  11.6km/h 95% 0in /  0.0mm
01:01 27.1 °F /  -2.7 °C 26.1 °F /  -3.3 °C 30.6in /  1037.1hPa NNE 6.3mph /  10.1km/h 7.2mph /  11.6km/h 96% 0in /  0.0mm
01:06 27.1 °F /  -2.7 °C 26.1 °F /  -3.3 °C 30.6in /  1037.1hPa NE 4.9mph /  7.9km/h 6.5mph /  10.5km/h 96% 0in /  0.0mm
01:11 27.1 °F /  -2.7 °C 26.1 °F /  -3.3 °C 30.6in /  1037.1hPa NE 3.8mph /  6.1km/h 6.3mph /  10.1km/h 96% 0in /  0.0mm
01:16 27 °F /  -2.8 °C 25.5 °F /  -3.6 °C 30.6in /  1037.1hPa NNE 3.8mph /  6.1km/h 5.6mph /  9.0km/h 95% 0in /  0.0mm
01:21 27 °F /  -2.8 °C 25.9 °F /  -3.4 °C 30.6in /  1037.1hPa NNE 4.3mph /  6.9km/h 5.8mph /  9.3km/h 96% 0in /  0.0mm
01:26 27 °F /  -2.8 °C 25.9 °F /  -3.4 °C 30.6in /  1037.1hPa NE 5.4mph /  8.7km/h 6.5mph /  10.5km/h 96% 0in /  0.0mm
01:31 27 °F /  -2.8 °C 25.9 °F /  -3.4 °C 30.6in /  1037.1hPa NE 5.4mph /  8.7km/h 6.5mph /  10.5km/h 96% 0in /  0.0mm
01:36 27 °F /  -2.8 °C 25.9 °F /  -3.4 °C 30.6in /  1037.1hPa NE 7.2mph /  11.6km/h 7.2mph /  11.6km/h 96% 0in /  0.0mm
01:41 27.1 °F /  -2.7 °C 26.1 °F /  -3.3 °C 30.6in /  1036.1hPa NE 5.8mph /  9.3km/h 7.4mph /  11.9km/h 96% 0in /  0.0mm
01:46 27.1 °F /  -2.7 °C 26.1 °F /  -3.3 °C 30.6in /  1036.1hPa NE 5.6mph /  9.0km/h 7.4mph /  11.9km/h 96% 0in /  0.0mm
01:51 27 °F /  -2.8 °C 25.9 °F /  -3.4 °C 30.6in /  1036.1hPa NE 6.5mph /  10.5km/h 7.2mph /  11.6km/h 96% 0in /  0.0mm
01:56 27.1 °F /  -2.7 °C 26.1 °F /  -3.3 °C 30.6in /  1037.1hPa NE 4.3mph /  6.9km/h 7.8mph /  12.6km/h 96% 0in /  0.0mm
02:02 32 °F /  0.0 °C 26.1 °F /  -3.3 °C 0in /  0.0hPa NE 6.5mph /  10.5km/h 7.8mph /  12.6km/h 0% 0in /  0.0mm
02:07 27.1 °F /  -2.7 °C 26.2 °F /  -3.2 °C 30.6in /  1037.1hPa ENE 4.3mph /  6.9km/h 7.4mph /  11.9km/h 96% 0in /  0.0mm
02:12 27.1 °F /  -2.7 °C 26.2 °F /  -3.2 °C 30.6in /  1037.1hPa ENE 5.4mph /  8.7km/h 6.9mph /  11.1km/h 96% 0in /  0.0mm
02:17 27.1 °F /  -2.7 °C 26.1 °F /  -3.3 °C 30.6in /  1037.1hPa NE 5.6mph /  9.0km/h 7.2mph /  11.6km/h 96% 0in /  0.0mm
02:22 27.1 °F /  -2.7 °C 26.1 °F /  -3.3 °C 30.6in /  1037.1hPa NNE 4mph /  6.4km/h 7.2mph /  11.6km/h 96% 0in /  0.0mm
02:27 27.1 °F /  -2.7 °C 26.1 °F /  -3.3 °C 30.6in /  1037.1hPa NE 4.5mph /  7.2km/h 6.3mph /  10.1km/h 96% 0in /  0.0mm
02:32 27 °F /  -2.8 °C 25.9 °F /  -3.4 °C 30.6in /  1037.1hPa North 4.3mph /  6.9km/h 6mph /  9.7km/h 96% 0in /  0.0mm
02:37 27 °F /  -2.8 °C 25.9 °F /  -3.4 °C 30.6in /  1037.1hPa NE 2.7mph /  4.3km/h 5.8mph /  9.3km/h 96% 0in /  0.0mm
02:42 26.8 °F /  -2.9 °C 25.7 °F /  -3.5 °C 30.6in /  1037.1hPa NE 3.6mph /  5.8km/h 5.8mph /  9.3km/h 96% 0in /  0.0mm
02:47 26.8 °F /  -2.9 °C 25.7 °F /  -3.5 °C 30.6in /  1037.1hPa NE 2.9mph /  4.7km/h 5.8mph /  9.3km/h 96% 0in /  0.0mm
02:52 26.8 °F /  -2.9 °C 25.7 °F /  -3.5 °C 30.6in /  1036.1hPa East 2mph /  3.2km/h 4.9mph /  7.9km/h 96% 0in /  0.0mm
02:57 26.4 °F /  -3.1 °C 25.3 °F /  -3.7 °C 30.6in /  1036.1hPa ENE 2mph /  3.2km/h 4mph /  6.4km/h 96% 0in /  0.0mm
03:02 26.2 °F /  -3.2 °C 25.2 °F /  -3.8 °C 30.6in /  1036.1hPa NE 2.7mph /  4.3km/h 3.1mph /  5.0km/h 96% 0in /  0.0mm
03:07 25.9 °F /  -3.4 °C 24.6 °F /  -4.1 °C 30.6in /  1036.1hPa Calm   3.1mph /  5.0km/h 95% 0in /  0.0mm
03:12 25.5 °F /  -3.6 °C 24.4 °F /  -4.2 °C 30.6in /  1036.1hPa NE 2.5mph /  4.0km/h 2.9mph /  4.7km/h 95% 0in /  0.0mm
03:17 25.5 °F /  -3.6 °C 24.3 °F /  -4.3 °C 30.6in /  1036.1hPa NE 2.2mph /  3.5km/h 2.9mph /  4.7km/h 95% 0in /  0.0mm
03:22 25.3 °F /  -3.7 °C 24.1 °F /  -4.4 °C 30.6in /  1037.1hPa East 1.3mph /  2.1km/h 2.9mph /  4.7km/h 95% 0in /  0.0mm
03:27 25.2 °F /  -3.8 °C 23.9 °F /  -4.5 °C 30.6in /  1037.1hPa ESE 1.3mph /  2.1km/h 2.5mph /  4.0km/h 95% 0in /  0.0mm
03:32 25.2 °F /  -3.8 °C 23.9 °F /  -4.5 °C 30.6in /  1037.1hPa Calm   2.5mph /  4.0km/h 95% 0in /  0.0mm
03:37 24.8 °F /  -4.0 °C 23.5 °F /  -4.7 °C 30.6in /  1037.1hPa Calm   0.9mph /  1.4km/h 95% 0in /  0.0mm
03:42 24.8 °F /  -4.0 °C 23.5 °F /  -4.7 °C 30.6in /  1037.1hPa Calm     95% 0in /  0.0mm
03:47 24.8 °F /  -4.0 °C 23.5 °F /  -4.7 °C 30.6in /  1037.1hPa NNE 2.7mph /  4.3km/h 2.9mph /  4.7km/h 95% 0in /  0.0mm
03:52 24.8 °F /  -4.0 °C 23.7 °F /  -4.6 °C 30.6in /  1037.1hPa NE 2.9mph /  4.7km/h 2.9mph /  4.7km/h 96% 0in /  0.0mm
03:57 25 °F /  -3.9 °C 24.1 °F /  -4.4 °C 30.6in /  1037.1hPa ENE 4.3mph /  6.9km/h 4.7mph /  7.6km/h 96% 0in /  0.0mm
04:02 25.3 °F /  -3.7 °C 24.3 °F /  -4.3 °C 30.6in /  1037.1hPa ENE 4.3mph /  6.9km/h 4.7mph /  7.6km/h 96% 0in /  0.0mm
04:07 25.5 °F /  -3.6 °C 24.6 °F /  -4.1 °C 30.6in /  1037.1hPa NE 4mph /  6.4km/h 4.7mph /  7.6km/h 97% 0in /  0.0mm
04:12 25.5 °F /  -3.6 °C 25 °F /  -3.9 °C 30.6in /  1037.1hPa NE 3.8mph /  6.1km/h 5.8mph /  9.3km/h 97% 0in /  0.0mm
04:17 25.5 °F /  -3.6 °C 25 °F /  -3.9 °C 30.6in /  1037.1hPa NE 3.8mph /  6.1km/h 5.8mph /  9.3km/h 97% 0in /  0.0mm
04:22 25.5 °F /  -3.6 °C 25 °F /  -3.9 °C 30.6in /  1037.1hPa NE 4.5mph /  7.2km/h 5.8mph /  9.3km/h 97% 0in /  0.0mm
04:27 25.9 °F /  -3.4 °C 25.2 °F /  -3.8 °C 30.6in /  1037.1hPa NE 4mph /  6.4km/h 5.8mph /  9.3km/h 97% 0in /  0.0mm
04:32 25.5 °F /  -3.6 °C 25 °F /  -3.9 °C 30.6in /  1037.1hPa North 6.3mph /  10.1km/h 6.3mph /  10.1km/h 97% 0in /  0.0mm
04:37 25.5 °F /  -3.6 °C 25 °F /  -3.9 °C 30.6in /  1037.1hPa NNE 4.5mph /  7.2km/h 6.3mph /  10.1km/h 97% 0in /  0.0mm
04:42 25.9 °F /  -3.4 °C 25.2 °F /  -3.8 °C 30.6in /  1037.1hPa NE 5.8mph /  9.3km/h 6.5mph /  10.5km/h 97% 0in /  0.0mm
04:47 25.9 °F /  -3.4 °C 25.2 °F /  -3.8 °C 30.6in /  1037.1hPa NE 7.6mph /  12.2km/h 7.8mph /  12.6km/h 97% 0in /  0.0mm
04:52 25.9 °F /  -3.4 °C 25.2 °F /  -3.8 °C 30.6in /  1037.1hPa NNE 6.3mph /  10.1km/h 7.8mph /  12.6km/h 97% 0in /  0.0mm
04:57 26.1 °F /  -3.3 °C 25.3 °F /  -3.7 °C 30.6in /  1037.1hPa NNE 4.9mph /  7.9km/h 7.6mph /  12.2km/h 97% 0in /  0.0mm
05:02 25.9 °F /  -3.4 °C 25.2 °F /  -3.8 °C 30.6in /  1037.1hPa NNE 5.8mph /  9.3km/h 7.4mph /  11.9km/h 97% 0in /  0.0mm
05:08 25.9 °F /  -3.4 °C 25.2 °F /  -3.8 °C 30.6in /  1037.1hPa NNE 4mph /  6.4km/h 7.4mph /  11.9km/h 97% 0in /  0.0mm
05:13 25.9 °F /  -3.4 °C 25.2 °F /  -3.8 °C 30.6in /  1037.1hPa NNE 5.6mph /  9.0km/h 6mph /  9.7km/h 97% 0in /  0.0mm
05:18 25.9 °F /  -3.4 °C 25.2 °F /  -3.8 °C 30.6in /  1037.1hPa NE 6.3mph /  10.1km/h 6.3mph /  10.1km/h 97% 0in /  0.0mm
05:23 25.5 °F /  -3.6 °C 25 °F /  -3.9 °C 30.6in /  1037.1hPa NE 4mph /  6.4km/h 6.3mph /  10.1km/h 97% 0in /  0.0mm
05:28 25.5 °F /  -3.6 °C 25 °F /  -3.9 °C 30.6in /  1037.1hPa NE 4.9mph /  7.9km/h 6.3mph /  10.1km/h 97% 0in /  0.0mm
05:33 25.5 °F /  -3.6 °C 25 °F /  -3.9 °C 30.6in /  1037.1hPa NE 6.3mph /  10.1km/h 6.5mph /  10.5km/h 97% 0in /  0.0mm
05:38 25.5 °F /  -3.6 °C 25 °F /  -3.9 °C 30.6in /  1037.1hPa NE 4mph /  6.4km/h 6.5mph /  10.5km/h 97% 0in /  0.0mm
05:43 25.5 °F /  -3.6 °C 25 °F /  -3.9 °C 30.6in /  1037.1hPa NE 5.4mph /  8.7km/h 5.6mph /  9.0km/h 97% 0in /  0.0mm
05:48 25.5 °F /  -3.6 °C 24.6 °F /  -4.1 °C 30.6in /  1037.1hPa NE 3.6mph /  5.8km/h 5.6mph /  9.0km/h 97% 0in /  0.0mm
05:53 25.5 °F /  -3.6 °C 24.6 °F /  -4.1 °C 30.6in /  1037.1hPa NNE 4.7mph /  7.6km/h 5.6mph /  9.0km/h 97% 0in /  0.0mm
05:58 25.5 °F /  -3.6 °C 25 °F /  -3.9 °C 30.6in /  1037.1hPa NNE 4mph /  6.4km/h 6.5mph /  10.5km/h 97% 0in /  0.0mm
06:03 25.5 °F /  -3.6 °C 24.6 °F /  -4.1 °C 30.6in /  1037.1hPa NE 4.3mph /  6.9km/h 6.5mph /  10.5km/h 97% 0in /  0.0mm
06:08 25.5 °F /  -3.6 °C 24.6 °F /  -4.1 °C 30.6in /  1037.1hPa NE 4.7mph /  7.6km/h 5.6mph /  9.0km/h 97% 0in /  0.0mm
06:13 25.5 °F /  -3.6 °C 24.6 °F /  -4.1 °C 30.6in /  1037.1hPa NNE 5.4mph /  8.7km/h 6mph /  9.7km/h 97% 0in /  0.0mm
06:18 25.5 °F /  -3.6 °C 24.6 °F /  -4.1 °C 30.6in /  1037.1hPa NE 3.4mph /  5.5km/h 6mph /  9.7km/h 97% 0in /  0.0mm
06:23 25.5 °F /  -3.6 °C 24.6 °F /  -4.1 °C 30.6in /  1037.1hPa NNE 4.7mph /  7.6km/h 5.8mph /  9.3km/h 97% 0in /  0.0mm
06:28 25.5 °F /  -3.6 °C 24.6 °F /  -4.1 °C 30.6in /  1037.1hPa NE 4.9mph /  7.9km/h 5.8mph /  9.3km/h 97% 0in /  0.0mm
06:33 25.5 °F /  -3.6 °C 24.6 °F /  -4.1 °C 30.6in /  1037.1hPa NE 3.4mph /  5.5km/h 5.8mph /  9.3km/h 97% 0in /  0.0mm
06:38 25.5 °F /  -3.6 °C 25 °F /  -3.9 °C 30.6in /  1037.1hPa NE 5.6mph /  9.0km/h 6mph /  9.7km/h 98% 0in /  0.0mm
06:43 25.5 °F /  -3.6 °C 25 °F /  -3.9 °C 30.6in /  1037.1hPa NE 5.6mph /  9.0km/h 6.3mph /  10.1km/h 98% 0in /  0.0mm
06:48 25.5 °F /  -3.6 °C 25 °F /  -3.9 °C 30.6in /  1037.1hPa NE 2.9mph /  4.7km/h 6.3mph /  10.1km/h 98% 0in /  0.0mm
06:53 25.5 °F /  -3.6 °C 25 °F /  -3.9 °C 30.6in /  1037.1hPa NNE 5.4mph /  8.7km/h 6.5mph /  10.5km/h 98% 0in /  0.0mm
06:58 25.5 °F /  -3.6 °C 25 °F /  -3.9 °C 30.6in /  1037.1hPa NNE 4.3mph /  6.9km/h 7.8mph /  12.6km/h 98% 0in /  0.0mm
07:03 25.5 °F /  -3.6 °C 25 °F /  -3.9 °C 30.6in /  1037.1hPa NE 4.3mph /  6.9km/h 7.8mph /  12.6km/h 98% 0in /  0.0mm
07:08 25.5 °F /  -3.6 °C 25 °F /  -3.9 °C 30.6in /  1037.1hPa NE 3.8mph /  6.1km/h 6.3mph /  10.1km/h 98% 0in /  0.0mm
07:13 25.5 °F /  -3.6 °C 25 °F /  -3.9 °C 30.6in /  1037.1hPa NE 6.3mph /  10.1km/h 7.4mph /  11.9km/h 98% 0in /  0.0mm
07:18 25.3 °F /  -3.7 °C 24.8 °F /  -4.0 °C 30.6in /  1037.1hPa NE 3.8mph /  6.1km/h 7.4mph /  11.9km/h 98% 0in /  0.0mm
07:23 25.3 °F /  -3.7 °C 24.8 °F /  -4.0 °C 30.6in /  1037.1hPa NE 5.4mph /  8.7km/h 6.7mph /  10.8km/h 98% 0in /  0.0mm
07:28 25.3 °F /  -3.7 °C 24.8 °F /  -4.0 °C 30.6in /  1037.1hPa NE 6mph /  9.7km/h 7.2mph /  11.6km/h 98% 0in /  0.0mm
07:33 25.3 °F /  -3.7 °C 24.8 °F /  -4.0 °C 30.6in /  1037.1hPa NE 5.6mph /  9.0km/h 7.2mph /  11.6km/h 98% 0in /  0.0mm
07:38 25.3 °F /  -3.7 °C 24.8 °F /  -4.0 °C 30.6in /  1037.1hPa NNE 5.4mph /  8.7km/h 6.5mph /  10.5km/h 98% 0in /  0.0mm
07:43 25.2 °F /  -3.8 °C 24.6 °F /  -4.1 °C 30.6in /  1037.1hPa NE 4.5mph /  7.2km/h 6.5mph /  10.5km/h 98% 0in /  0.0mm
07:48 25.2 °F /  -3.8 °C 24.4 °F /  -4.2 °C 30.6in /  1037.1hPa NE 5.4mph /  8.7km/h 6.3mph /  10.1km/h 97% 0in /  0.0mm
07:53 25.2 °F /  -3.8 °C 24.6 °F /  -4.1 °C 30.6in /  1037.1hPa ENE 4.9mph /  7.9km/h 7.4mph /  11.9km/h 98% 0in /  0.0mm
07:58 25.2 °F /  -3.8 °C 24.6 °F /  -4.1 °C 30.6in /  1037.1hPa ENE 6mph /  9.7km/h 7.4mph /  11.9km/h 98% 0in /  0.0mm
08:03 25.2 °F /  -3.8 °C 24.6 °F /  -4.1 °C 30.6in /  1037.1hPa NE 5.4mph /  8.7km/h 6.3mph /  10.1km/h 98% 0in /  0.0mm
08:08 25.2 °F /  -3.8 °C 24.6 °F /  -4.1 °C 30.6in /  1037.1hPa ENE 5.4mph /  8.7km/h 6.3mph /  10.1km/h 98% 0in /  0.0mm
08:13 25.2 °F /  -3.8 °C 24.6 °F /  -4.1 °C 30.6in /  1037.1hPa North 5.6mph /  9.0km/h 6.3mph /  10.1km/h 98% 0in /  0.0mm
08:18 25 °F /  -3.9 °C 24.4 °F /  -4.2 °C 30.6in /  1037.1hPa NNE 5.4mph /  8.7km/h 6.3mph /  10.1km/h 98% 0in /  0.0mm
08:23 25 °F /  -3.9 °C 24.4 °F /  -4.2 °C 30.6in /  1037.1hPa NNE 5.6mph /  9.0km/h 6mph /  9.7km/h 98% 0in /  0.0mm
08:28 25 °F /  -3.9 °C 24.4 °F /  -4.2 °C 30.6in /  1037.1hPa NE 3.8mph /  6.1km/h 6mph /  9.7km/h 98% 0in /  0.0mm
08:33 25 °F /  -3.9 °C 24.4 °F /  -4.2 °C 30.6in /  1037.1hPa NNE 6.9mph /  11.1km/h 8.1mph /  13.0km/h 98% 0in /  0.0mm
08:38 25 °F /  -3.9 °C 24.4 °F /  -4.2 °C 30.6in /  1037.1hPa NE 6.3mph /  10.1km/h 8.5mph /  13.7km/h 98% 0in /  0.0mm
08:43 25 °F /  -3.9 °C 24.4 °F /  -4.2 °C 30.6in /  1037.1hPa NE 6.5mph /  10.5km/h 8.5mph /  13.7km/h 98% 0in /  0.0mm
08:48 25 °F /  -3.9 °C 24.4 °F /  -4.2 °C 30.6in /  1037.1hPa NE 5.8mph /  9.3km/h 7.8mph /  12.6km/h 98% 0in /  0.0mm
08:53 25 °F /  -3.9 °C 24.4 °F /  -4.2 °C 30.6in /  1037.1hPa NE 8.7mph /  14.0km/h 8.7mph /  14.0km/h 98% 0in /  0.0mm
08:58 25 °F /  -3.9 °C 24.4 °F /  -4.2 °C 30.6in /  1037.1hPa East 4.9mph /  7.9km/h 8.7mph /  14.0km/h 98% 0in /  0.0mm
09:03 25 °F /  -3.9 °C 24.4 °F /  -4.2 °C 30.6in /  1037.1hPa East 5.6mph /  9.0km/h 7.6mph /  12.2km/h 98% 0in /  0.0mm
09:08 25.2 °F /  -3.8 °C 24.6 °F /  -4.1 °C 30.6in /  1037.1hPa ENE 5.8mph /  9.3km/h 9.6mph /  15.4km/h 98% 0in /  0.0mm
09:13 25.2 °F /  -3.8 °C 24.6 °F /  -4.1 °C 30.6in /  1037.1hPa ENE 5.8mph /  9.3km/h 9.6mph /  15.4km/h 98% 0in /  0.0mm
09:18 25.3 °F /  -3.7 °C 24.8 °F /  -4.0 °C 30.6in /  1037.1hPa ENE 6.5mph /  10.5km/h 7.8mph /  12.6km/h 98% 0in /  0.0mm
09:23 25.3 °F /  -3.7 °C 24.8 °F /  -4.0 °C 30.6in /  1037.1hPa NE 4.5mph /  7.2km/h 8.5mph /  13.7km/h 98% 0in /  0.0mm
09:28 25.5 °F /  -3.6 °C 25 °F /  -3.9 °C 30.6in /  1037.1hPa NE 6mph /  9.7km/h 8.5mph /  13.7km/h 98% 0in /  0.0mm
09:33 25.5 °F /  -3.6 °C 25 °F /  -3.9 °C 30.6in /  1037.1hPa NE 5.6mph /  9.0km/h 7.6mph /  12.2km/h 98% 0in /  0.0mm
09:38 25.5 °F /  -3.6 °C 25 °F /  -3.9 °C 30.6in /  1037.1hPa NE 5.8mph /  9.3km/h 7.2mph /  11.6km/h 98% 0in /  0.0mm
09:43 25.5 °F /  -3.6 °C 25 °F /  -3.9 °C 30.6in /  1037.1hPa NNE 5.6mph /  9.0km/h 7.8mph /  12.6km/h 98% 0in /  0.0mm
09:48 25.5 °F /  -3.6 °C 25 °F /  -3.9 °C 30.6in /  1037.1hPa ENE 5.4mph /  8.7km/h 7.8mph /  12.6km/h 98% 0in /  0.0mm
09:53 25.5 °F /  -3.6 °C 25 °F /  -3.9 °C 30.7in /  1038.1hPa ENE 5.6mph /  9.0km/h 8.1mph /  13.0km/h 98% 0in /  0.0mm
09:58 25.5 °F /  -3.6 °C 25.2 °F /  -3.8 °C 30.7in /  1038.1hPa NE 8.7mph /  14.0km/h 8.7mph /  14.0km/h 98% 0in /  0.0mm
10:03 25.9 °F /  -3.4 °C 25.3 °F /  -3.7 °C 30.7in /  1038.1hPa NE 7.6mph /  12.2km/h 8.7mph /  14.0km/h 98% 0in /  0.0mm
10:08 26.2 °F /  -3.2 °C 25.7 °F /  -3.5 °C 30.7in /  1038.1hPa ENE 5.6mph /  9.0km/h 8.5mph /  13.7km/h 98% 0in /  0.0mm
10:13 26.1 °F /  -3.3 °C 25.5 °F /  -3.6 °C 30.7in /  1038.1hPa ENE 4.3mph /  6.9km/h 8.1mph /  13.0km/h 98% 0in /  0.0mm
10:18 26.2 °F /  -3.2 °C 25.7 °F /  -3.5 °C 30.7in /  1038.1hPa NNE 6.3mph /  10.1km/h 8.1mph /  13.0km/h 98% 0in /  0.0mm
10:23 26.2 °F /  -3.2 °C 25.7 °F /  -3.5 °C 30.7in /  1038.1hPa NE 5.6mph /  9.0km/h 8.7mph /  14.0km/h 98% 0in /  0.0mm
10:28 26.2 °F /  -3.2 °C 25.7 °F /  -3.5 °C 30.7in /  1038.1hPa ENE 8.5mph /  13.7km/h 9.8mph /  15.8km/h 98% 0in /  0.0mm
10:33 26.4 °F /  -3.1 °C 25.9 °F /  -3.4 °C 30.7in /  1038.1hPa ENE 5.6mph /  9.0km/h 9.8mph /  15.8km/h 98% 0in /  0.0mm
10:38 26.4 °F /  -3.1 °C 26.1 °F /  -3.3 °C 30.7in /  1038.1hPa NNE 8.9mph /  14.3km/h 10.1mph /  16.3km/h 98% 0in /  0.0mm
10:43 26.8 °F /  -2.9 °C 26.2 °F /  -3.2 °C 30.7in /  1038.1hPa NNE 6mph /  9.7km/h 10.1mph /  16.3km/h 98% 0in /  0.0mm
10:48 27 °F /  -2.8 °C 26.4 °F /  -3.1 °C 30.7in /  1038.1hPa ENE 4mph /  6.4km/h 8.5mph /  13.7km/h 98% 0in /  0.0mm
10:53 27.1 °F /  -2.7 °C 26.6 °F /  -3.0 °C 30.7in /  1038.1hPa NNE 7.4mph /  11.9km/h 8.5mph /  13.7km/h 98% 0in /  0.0mm
10:58 27.3 °F /  -2.6 °C 27 °F /  -2.8 °C 30.7in /  1038.1hPa NE 5.8mph /  9.3km/h 8.5mph /  13.7km/h 98% 0in /  0.0mm
11:03 27.9 °F /  -2.3 °C 27.3 °F /  -2.6 °C 30.7in /  1038.1hPa ENE 7.2mph /  11.6km/h 8.1mph /  13.0km/h 98% 0in /  0.0mm
11:08 28 °F /  -2.2 °C 27.7 °F /  -2.4 °C 30.6in /  1037.1hPa ENE 5.8mph /  9.3km/h 8.5mph /  13.7km/h 98% 0in /  0.0mm
11:13 28.2 °F /  -2.1 °C 27.9 °F /  -2.3 °C 30.6in /  1037.1hPa NE 6.5mph /  10.5km/h 8.7mph /  14.0km/h 98% 0in /  0.0mm
11:18 28.6 °F /  -1.9 °C 27.9 °F /  -2.3 °C 30.6in /  1037.1hPa NE 6mph /  9.7km/h 8.9mph /  14.3km/h 97% 0in /  0.0mm
11:23 28.9 °F /  -1.7 °C 28.2 °F /  -2.1 °C 30.6in /  1037.1hPa NE 7.6mph /  12.2km/h 8.9mph /  14.3km/h 97% 0in /  0.0mm
11:28 28.9 °F /  -1.7 °C 28.2 °F /  -2.1 °C 30.6in /  1037.1hPa ENE 7.6mph /  12.2km/h 8.5mph /  13.7km/h 97% 0in /  0.0mm
11:33 29.5 °F /  -1.4 °C 28.6 °F /  -1.9 °C 30.6in /  1037.1hPa NE 7.4mph /  11.9km/h 8.9mph /  14.3km/h 97% 0in /  0.0mm
11:38 29.5 °F /  -1.4 °C 28.8 °F /  -1.8 °C 30.6in /  1037.1hPa NE 7.4mph /  11.9km/h 8.9mph /  14.3km/h 97% 0in /  0.0mm
11:43 29.7 °F /  -1.3 °C 28.9 °F /  -1.7 °C 30.6in /  1037.1hPa ENE 7.4mph /  11.9km/h 8.5mph /  13.7km/h 97% 0in /  0.0mm
11:48 29.8 °F /  -1.2 °C 28.9 °F /  -1.7 °C 30.6in /  1037.1hPa ENE 6.3mph /  10.1km/h 8.5mph /  13.7km/h 96% 0in /  0.0mm
11:53 30 °F /  -1.1 °C 29.1 °F /  -1.6 °C 30.6in /  1037.1hPa ENE 6.3mph /  10.1km/h 8.1mph /  13.0km/h 96% 0in /  0.0mm
11:58 30.2 °F /  -1.0 °C 29.1 °F /  -1.6 °C 30.6in /  1037.1hPa NE 4.3mph /  6.9km/h 8.5mph /  13.7km/h 96% 0in /  0.0mm
12:03 30.4 °F /  -0.9 °C 29.1 °F /  -1.6 °C 30.6in /  1037.1hPa ENE 5.4mph /  8.7km/h 8.5mph /  13.7km/h 95% 0in /  0.0mm
12:08 30.6 °F /  -0.8 °C 29.3 °F /  -1.5 °C 30.6in /  1037.1hPa NE 5.6mph /  9.0km/h 8.1mph /  13.0km/h 95% 0in /  0.0mm
12:13 30.7 °F /  -0.7 °C 29.1 °F /  -1.6 °C 30.6in /  1037.1hPa ENE 7.2mph /  11.6km/h 8.1mph /  13.0km/h 94% 0in /  0.0mm
12:18 31.1 °F /  -0.5 °C 29.7 °F /  -1.3 °C 30.6in /  1037.1hPa East 3.8mph /  6.1km/h 8.5mph /  13.7km/h 94% 0in /  0.0mm
12:23 31.3 °F /  -0.4 °C 29.8 °F /  -1.2 °C 30.6in /  1036.1hPa ENE 6.5mph /  10.5km/h 8.5mph /  13.7km/h 94% 0in /  0.0mm
12:28 31.3 °F /  -0.4 °C 29.5 °F /  -1.4 °C 30.6in /  1036.1hPa ENE 6.7mph /  10.8km/h 8.7mph /  14.0km/h 93% 0in /  0.0mm
12:33 31.5 °F /  -0.3 °C 29.7 °F /  -1.3 °C 30.6in /  1036.1hPa ENE 6.5mph /  10.5km/h 8.7mph /  14.0km/h 93% 0in /  0.0mm
12:38 31.8 °F /  -0.1 °C 29.8 °F /  -1.2 °C 30.6in /  1037.1hPa NE 6.9mph /  11.1km/h 8.5mph /  13.7km/h 92% 0in /  0.0mm
12:43 32.2 °F /  0.1 °C 30 °F /  -1.1 °C 30.6in /  1037.1hPa NE 4.9mph /  7.9km/h 8.1mph /  13.0km/h 92% 0in /  0.0mm
12:48 32.2 °F /  0.1 °C 30 °F /  -1.1 °C 30.6in /  1037.1hPa ENE 5.4mph /  8.7km/h 8.1mph /  13.0km/h 92% 0in /  0.0mm
12:54 32.4 °F /  0.2 °C 30 °F /  -1.1 °C 30.6in /  1036.1hPa ENE 4.9mph /  7.9km/h 7.8mph /  12.6km/h 91% 0in /  0.0mm
12:59 32.5 °F /  0.3 °C 30.2 °F /  -1.0 °C 30.6in /  1036.1hPa ENE 5.8mph /  9.3km/h 7.8mph /  12.6km/h 91% 0in /  0.0mm
13:04 32.7 °F /  0.4 °C 30 °F /  -1.1 °C 30.6in /  1036.1hPa ENE 8.1mph /  13.0km/h 8.1mph /  13.0km/h 90% 0in /  0.0mm
13:09 32.7 °F /  0.4 °C 29.8 °F /  -1.2 °C 30.6in /  1036.1hPa ENE 5.6mph /  9.0km/h 8.7mph /  14.0km/h 89% 0in /  0.0mm
13:14 32.9 °F /  0.5 °C 30 °F /  -1.1 °C 30.6in /  1036.1hPa ENE 5.8mph /  9.3km/h 8.7mph /  14.0km/h 89% 0in /  0.0mm
13:19 33.1 °F /  0.6 °C 29.8 °F /  -1.2 °C 30.6in /  1036.1hPa ENE 5.4mph /  8.7km/h 8.1mph /  13.0km/h 88% 0in /  0.0mm
13:24 33.3 °F /  0.7 °C 30 °F /  -1.1 °C 30.6in /  1037.1hPa ENE 5.8mph /  9.3km/h 8.1mph /  13.0km/h 88% 0in /  0.0mm
13:29 33.4 °F /  0.8 °C 30 °F /  -1.1 °C 30.6in /  1037.1hPa ENE 4.9mph /  7.9km/h 8.1mph /  13.0km/h 87% 0in /  0.0mm
13:34 33.4 °F /  0.8 °C 29.7 °F /  -1.3 °C 30.6in /  1037.1hPa East 3.1mph /  5.0km/h 7.6mph /  12.2km/h 86% 0in /  0.0mm
13:39 33.4 °F /  0.8 °C 29.7 °F /  -1.3 °C 30.6in /  1037.1hPa East 5.8mph /  9.3km/h 8.7mph /  14.0km/h 86% 0in /  0.0mm
13:44 33.4 °F /  0.8 °C 29.5 °F /  -1.4 °C 30.6in /  1037.1hPa ENE 7.4mph /  11.9km/h 9.2mph /  14.8km/h 85% 0in /  0.0mm
13:49 33.4 °F /  0.8 °C 29.5 °F /  -1.4 °C 30.6in /  1037.1hPa ENE 6.3mph /  10.1km/h 9.4mph /  15.1km/h 85% 0in /  0.0mm
13:54 33.6 °F /  0.9 °C 29.3 °F /  -1.5 °C 30.6in /  1037.1hPa East 3.6mph /  5.8km/h 9.4mph /  15.1km/h 84% 0in /  0.0mm
13:59 33.8 °F /  1.0 °C 29.1 °F /  -1.6 °C 30.6in /  1037.1hPa East 5.4mph /  8.7km/h 8.9mph /  14.3km/h 83% 0in /  0.0mm
14:04 34 °F /  1.1 °C 29.3 °F /  -1.5 °C 30.6in /  1037.1hPa NE 4.9mph /  7.9km/h 7.2mph /  11.6km/h 83% 0in /  0.0mm
14:09 34 °F /  1.1 °C 29.3 °F /  -1.5 °C 30.6in /  1037.1hPa NNE 5.6mph /  9.0km/h 7.6mph /  12.2km/h 83% 0in /  0.0mm
14:14 34.2 °F /  1.2 °C 29.5 °F /  -1.4 °C 30.6in /  1037.1hPa ENE 4.3mph /  6.9km/h 7.6mph /  12.2km/h 83% 0in /  0.0mm
14:19 34.2 °F /  1.2 °C 29.5 °F /  -1.4 °C 30.6in /  1037.1hPa NE 6mph /  9.7km/h 6.9mph /  11.1km/h 83% 0in /  0.0mm
14:24 34.2 °F /  1.2 °C 29.1 °F /  -1.6 °C 30.6in /  1037.1hPa ENE 7.6mph /  12.2km/h 7.8mph /  12.6km/h 82% 0in /  0.0mm
14:29 34.3 °F /  1.3 °C 29.5 °F /  -1.4 °C 30.6in /  1037.1hPa NNE 3.8mph /  6.1km/h 7.8mph /  12.6km/h 82% 0in /  0.0mm
14:34 34.3 °F /  1.3 °C 29.5 °F /  -1.4 °C 30.6in /  1037.1hPa NNE 7.6mph /  12.2km/h 8.9mph /  14.3km/h 82% 0in /  0.0mm
14:39 34.3 °F /  1.3 °C 28.8 °F /  -1.8 °C 30.6in /  1037.1hPa NE 7.4mph /  11.9km/h 9.8mph /  15.8km/h 80% 0in /  0.0mm
14:44 34 °F /  1.1 °C 28 °F /  -2.2 °C 30.6in /  1037.1hPa NE 6.5mph /  10.5km/h 9.8mph /  15.8km/h 79% 0in /  0.0mm
14:49 34.2 °F /  1.2 °C 28.2 °F /  -2.1 °C 30.6in /  1037.1hPa NE 6.5mph /  10.5km/h 8.7mph /  14.0km/h 79% 0in /  0.0mm
14:54 34.3 °F /  1.3 °C 28.6 °F /  -1.9 °C 30.6in /  1037.1hPa NNE 7.8mph /  12.6km/h 9.4mph /  15.1km/h 79% 0in /  0.0mm
14:59 34.3 °F /  1.3 °C 28.6 °F /  -1.9 °C 30.6in /  1037.1hPa NE 8.5mph /  13.7km/h 9.4mph /  15.1km/h 79% 0in /  0.0mm
15:04 34.9 °F /  1.6 °C 28.8 °F /  -1.8 °C 30.6in /  1037.1hPa NE 7.6mph /  12.2km/h 10.7mph /  17.2km/h 78% 0in /  0.0mm
15:09 34.5 °F /  1.4 °C 28.6 °F /  -1.9 °C 30.6in /  1037.1hPa NE 7.8mph /  12.6km/h 10.7mph /  17.2km/h 78% 0in /  0.0mm
15:14 34.3 °F /  1.3 °C 27.9 °F /  -2.3 °C 30.6in /  1037.1hPa NE 6.7mph /  10.8km/h 11mph /  17.7km/h 77% 0in /  0.0mm
15:19 34 °F /  1.1 °C 27.9 °F /  -2.3 °C 30.6in /  1037.1hPa NE 6.3mph /  10.1km/h 11mph /  17.7km/h 78% 0in /  0.0mm
15:24 34 °F /  1.1 °C 27.9 °F /  -2.3 °C 30.6in /  1037.1hPa NNE 4.9mph /  7.9km/h 9.4mph /  15.1km/h 78% 0in /  0.0mm
15:29 33.8 °F /  1.0 °C 27.7 °F /  -2.4 °C 30.6in /  1037.1hPa North 6.5mph /  10.5km/h 9.4mph /  15.1km/h 78% 0in /  0.0mm
15:34 33.6 °F /  0.9 °C 27.9 °F /  -2.3 °C 30.6in /  1037.1hPa NNE 9.4mph /  15.1km/h 9.4mph /  15.1km/h 79% 0in /  0.0mm
15:39 33.6 °F /  0.9 °C 28 °F /  -2.2 °C 30.6in /  1037.1hPa NE 7.8mph /  12.6km/h 10.5mph /  16.9km/h 80% 0in /  0.0mm
15:44 33.6 °F /  0.9 °C 28 °F /  -2.2 °C 30.6in /  1037.1hPa NE 8.7mph /  14.0km/h 11mph /  17.7km/h 80% 0in /  0.0mm
15:49 33.6 °F /  0.9 °C 28 °F /  -2.2 °C 30.6in /  1037.1hPa NNE 7.8mph /  12.6km/h 11mph /  17.7km/h 80% 0in /  0.0mm
15:54 33.6 °F /  0.9 °C 28 °F /  -2.2 °C 30.6in /  1037.1hPa ENE 5.8mph /  9.3km/h 10.7mph /  17.2km/h 80% 0in /  0.0mm
15:59 33.6 °F /  0.9 °C 27.9 °F /  -2.3 °C 30.6in /  1037.1hPa NNE 5.8mph /  9.3km/h 10.7mph /  17.2km/h 79% 0in /  0.0mm
16:04 33.6 °F /  0.9 °C 27.9 °F /  -2.3 °C 30.6in /  1037.1hPa NE 8.7mph /  14.0km/h 11mph /  17.7km/h 79% 0in /  0.0mm
16:09 33.4 °F /  0.8 °C 27.7 °F /  -2.4 °C 30.6in /  1037.1hPa NNE 7.4mph /  11.9km/h 11mph /  17.7km/h 79% 0in /  0.0mm
16:14 33.3 °F /  0.7 °C 27.3 °F /  -2.6 °C 30.6in /  1037.1hPa NNE 8.1mph /  13.0km/h 10.5mph /  16.9km/h 79% 0in /  0.0mm
16:19 33.1 °F /  0.6 °C 27.7 °F /  -2.4 °C 30.6in /  1037.1hPa NE 8.1mph /  13.0km/h 10.3mph /  16.6km/h 80% 0in /  0.0mm
16:25 32.7 °F /  0.4 °C 27 °F /  -2.8 °C 30.6in /  1037.1hPa NE 7.8mph /  12.6km/h 11.4mph /  18.3km/h 79% 0in /  0.0mm
16:30 32.5 °F /  0.3 °C 26.8 °F /  -2.9 °C 30.6in /  1037.1hPa NE 5.4mph /  8.7km/h 11.4mph /  18.3km/h 79% 0in /  0.0mm
16:35 32.5 °F /  0.3 °C 27 °F /  -2.8 °C 30.6in /  1037.1hPa NE 7.6mph /  12.2km/h 11mph /  17.7km/h 80% 0in /  0.0mm
16:41 32.4 °F /  0.2 °C 27 °F /  -2.8 °C 30.6in /  1037.1hPa NE 6.3mph /  10.1km/h 10.5mph /  16.9km/h 80% 0in /  0.0mm
16:46 32.2 °F /  0.1 °C 27 °F /  -2.8 °C 30.6in /  1037.1hPa NNE 7.4mph /  11.9km/h 10.5mph /  16.9km/h 81% 0in /  0.0mm
16:51 32 °F /  0.0 °C 27.1 °F /  -2.7 °C 30.6in /  1037.1hPa NNE 7.6mph /  12.2km/h 8.9mph /  14.3km/h 82% 0in /  0.0mm
16:56 31.8 °F /  -0.1 °C 27 °F /  -2.8 °C 30.6in /  1037.1hPa NNE 6.5mph /  10.5km/h 10.7mph /  17.2km/h 82% 0in /  0.0mm
17:02 31.6 °F /  -0.2 °C 26.8 °F /  -2.9 °C 30.6in /  1037.1hPa NNE 8.7mph /  14.0km/h 10.7mph /  17.2km/h 82% 0in /  0.0mm
17:07 31.5 °F /  -0.3 °C 26.6 °F /  -3.0 °C 30.6in /  1037.1hPa NE 6.5mph /  10.5km/h 10.1mph /  16.3km/h 82% 0in /  0.0mm
17:17 31.1 °F /  -0.5 °C 26.6 °F /  -3.0 °C 30.6in /  1037.1hPa NE 6.3mph /  10.1km/h 7.6mph /  12.2km/h 83% 0in /  0.0mm
17:22 31.1 °F /  -0.5 °C 26.8 °F /  -2.9 °C 30.6in /  1037.1hPa NNE 7.4mph /  11.9km/h 7.6mph /  12.2km/h 84% 0in /  0.0mm
17:27 30.9 °F /  -0.6 °C 27 °F /  -2.8 °C 30.6in /  1037.1hPa NE 7.8mph /  12.6km/h 8.1mph /  13.0km/h 85% 0in /  0.0mm
17:32 30.9 °F /  -0.6 °C 27 °F /  -2.8 °C 30.6in /  1037.1hPa NNE 6.3mph /  10.1km/h 8.5mph /  13.7km/h 85% 0in /  0.0mm
17:37 30.7 °F /  -0.7 °C 27.1 °F /  -2.7 °C 30.6in /  1037.1hPa NE 5.8mph /  9.3km/h 8.5mph /  13.7km/h 86% 0in /  0.0mm
17:42 30.6 °F /  -0.8 °C 27 °F /  -2.8 °C 30.6in /  1037.1hPa NNE 7.8mph /  12.6km/h 8.5mph /  13.7km/h 86% 0in /  0.0mm
17:52 30.4 °F /  -0.9 °C 27 °F /  -2.8 °C 30.6in /  1037.1hPa NE 8.1mph /  13.0km/h 8.1mph /  13.0km/h 87% 0in /  0.0mm
17:57 30.2 °F /  -1.0 °C 27.1 °F /  -2.7 °C 30.6in /  1037.1hPa NNE 7.4mph /  11.9km/h 8.1mph /  13.0km/h 88% 0in /  0.0mm
18:02 30.2 °F /  -1.0 °C 27.1 °F /  -2.7 °C 30.6in /  1037.1hPa NE 5.6mph /  9.0km/h 7.4mph /  11.9km/h 88% 0in /  0.0mm
18:07 30.2 °F /  -1.0 °C 27.1 °F /  -2.7 °C 30.6in /  1037.1hPa NE 4mph /  6.4km/h 6.5mph /  10.5km/h 88% 0in /  0.0mm
18:12 30 °F /  -1.1 °C 27 °F /  -2.8 °C 30.6in /  1037.1hPa NE 7.2mph /  11.6km/h 7.6mph /  12.2km/h 88% 0in /  0.0mm
18:17 30 °F /  -1.1 °C 27.1 °F /  -2.7 °C 30.6in /  1037.1hPa NE 4.9mph /  7.9km/h 7.6mph /  12.2km/h 89% 0in /  0.0mm
18:22 30 °F /  -1.1 °C 27.1 °F /  -2.7 °C 30.6in /  1037.1hPa NE 5.4mph /  8.7km/h 6.5mph /  10.5km/h 89% 0in /  0.0mm
18:28 29.8 °F /  -1.2 °C 27 °F /  -2.8 °C 30.6in /  1037.1hPa NNE 5.6mph /  9.0km/h 8.7mph /  14.0km/h 89% 0in /  0.0mm
18:33 29.8 °F /  -1.2 °C 27.3 °F /  -2.6 °C 30.6in /  1037.1hPa NE 7.6mph /  12.2km/h 8.7mph /  14.0km/h 90% 0in /  0.0mm
18:38 29.7 °F /  -1.3 °C 27.1 °F /  -2.7 °C 30.6in /  1036.1hPa NNE 6.3mph /  10.1km/h 8.5mph /  13.7km/h 90% 0in /  0.0mm
18:43 29.7 °F /  -1.3 °C 27.1 °F /  -2.7 °C 30.6in /  1036.1hPa NE 6mph /  9.7km/h 8.5mph /  13.7km/h 90% 0in /  0.0mm
18:48 29.7 °F /  -1.3 °C 27.1 °F /  -2.7 °C 30.6in /  1036.1hPa NE 5.8mph /  9.3km/h 8.1mph /  13.0km/h 90% 0in /  0.0mm
18:53 29.5 °F /  -1.4 °C 27 °F /  -2.8 °C 30.6in /  1036.1hPa NE 4.9mph /  7.9km/h 8.1mph /  13.0km/h 90% 0in /  0.0mm
18:58 29.5 °F /  -1.4 °C 27 °F /  -2.8 °C 30.6in /  1036.1hPa NNE 6.5mph /  10.5km/h 6.5mph /  10.5km/h 90% 0in /  0.0mm
19:03 29.5 °F /  -1.4 °C 27.1 °F /  -2.7 °C 30.6in /  1036.1hPa NE 5.4mph /  8.7km/h 6.5mph /  10.5km/h 91% 0in /  0.0mm
19:08 29.5 °F /  -1.4 °C 27.1 °F /  -2.7 °C 30.6in /  1036.1hPa NE 6.3mph /  10.1km/h 6.5mph /  10.5km/h 91% 0in /  0.0mm
19:13 29.5 °F /  -1.4 °C 27.1 °F /  -2.7 °C 30.6in /  1036.1hPa NE 4.9mph /  7.9km/h 7.8mph /  12.6km/h 91% 0in /  0.0mm
19:18 29.5 °F /  -1.4 °C 27.1 °F /  -2.7 °C 30.6in /  1036.1hPa NNE 4mph /  6.4km/h 7.8mph /  12.6km/h 91% 0in /  0.0mm
19:23 29.5 °F /  -1.4 °C 27.1 °F /  -2.7 °C 30.6in /  1036.1hPa NNE 6.3mph /  10.1km/h 7.8mph /  12.6km/h 91% 0in /  0.0mm
19:28 29.5 °F /  -1.4 °C 27.3 °F /  -2.6 °C 30.6in /  1036.1hPa NNE 5.8mph /  9.3km/h 7.8mph /  12.6km/h 92% 0in /  0.0mm
19:33 29.1 °F /  -1.6 °C 27.1 °F /  -2.7 °C 30.6in /  1036.1hPa NNE 4.9mph /  7.9km/h 6.5mph /  10.5km/h 92% 0in /  0.0mm
19:38 29.1 °F /  -1.6 °C 27.1 °F /  -2.7 °C 30.6in /  1036.1hPa NNE 4.7mph /  7.6km/h 6.5mph /  10.5km/h 92% 0in /  0.0mm
19:43 29.1 °F /  -1.6 °C 27.1 °F /  -2.7 °C 30.6in /  1036.1hPa NNE 6.7mph /  10.8km/h 7.2mph /  11.6km/h 92% 0in /  0.0mm
19:48 28.9 °F /  -1.7 °C 27 °F /  -2.8 °C 30.6in /  1036.1hPa NNE 6.5mph /  10.5km/h 7.8mph /  12.6km/h 92% 0in /  0.0mm
19:53 28.9 °F /  -1.7 °C 27.1 °F /  -2.7 °C 30.6in /  1036.1hPa NNE 6.3mph /  10.1km/h 7.8mph /  12.6km/h 93% 0in /  0.0mm
19:58 28.9 °F /  -1.7 °C 27.1 °F /  -2.7 °C 30.6in /  1036.1hPa NE 7.8mph /  12.6km/h 8.7mph /  14.0km/h 93% 0in /  0.0mm
20:03 28.8 °F /  -1.8 °C 27.1 °F /  -2.7 °C 30.6in /  1036.1hPa NNE 4.7mph /  7.6km/h 8.7mph /  14.0km/h 93% 0in /  0.0mm
20:08 28.8 °F /  -1.8 °C 27.1 °F /  -2.7 °C 30.6in /  1036.1hPa NE 5.4mph /  8.7km/h 7.8mph /  12.6km/h 93% 0in /  0.0mm
20:13 28.8 °F /  -1.8 °C 27.1 °F /  -2.7 °C 30.6in /  1036.1hPa NE 4mph /  6.4km/h 7.8mph /  12.6km/h 93% 0in /  0.0mm
20:18 28.6 °F /  -1.9 °C 27 °F /  -2.8 °C 30.6in /  1036.1hPa NNE 4mph /  6.4km/h 6.5mph /  10.5km/h 93% 0in /  0.0mm
20:23 28.6 °F /  -1.9 °C 27 °F /  -2.8 °C 30.6in /  1036.1hPa NE 5.6mph /  9.0km/h 7.2mph /  11.6km/h 93% 0in /  0.0mm
20:28 28.6 °F /  -1.9 °C 27 °F /  -2.8 °C 30.6in /  1036.1hPa NE 5.8mph /  9.3km/h 7.2mph /  11.6km/h 93% 0in /  0.0mm
20:33 28.6 °F /  -1.9 °C 27.1 °F /  -2.7 °C 30.6in /  1036.1hPa NE 6mph /  9.7km/h 7.8mph /  12.6km/h 94% 0in /  0.0mm
20:38 28.6 °F /  -1.9 °C 27.1 °F /  -2.7 °C 30.6in /  1037.1hPa ENE 6mph /  9.7km/h 7.8mph /  12.6km/h 94% 0in /  0.0mm
20:43 28.6 °F /  -1.9 °C 27 °F /  -2.8 °C 30.6in /  1037.1hPa NNE 6mph /  9.7km/h 6.5mph /  10.5km/h 94% 0in /  0.0mm
20:48 28.6 °F /  -1.9 °C 27 °F /  -2.8 °C 30.6in /  1037.1hPa NE 4.9mph /  7.9km/h 6mph /  9.7km/h 94% 0in /  0.0mm
20:53 28.6 °F /  -1.9 °C 27 °F /  -2.8 °C 30.6in /  1036.1hPa NE 4.7mph /  7.6km/h 6.3mph /  10.1km/h 94% 0in /  0.0mm
20:58 28.6 °F /  -1.9 °C 27 °F /  -2.8 °C 30.6in /  1036.1hPa North 2.9mph /  4.7km/h 6.3mph /  10.1km/h 94% 0in /  0.0mm
21:03 28.6 °F /  -1.9 °C 27 °F /  -2.8 °C 30.6in /  1036.1hPa NNE 4.9mph /  7.9km/h 5.8mph /  9.3km/h 94% 0in /  0.0mm
21:08 28.2 °F /  -2.1 °C 26.8 °F /  -2.9 °C 30.6in /  1036.1hPa NE 3.1mph /  5.0km/h 6.3mph /  10.1km/h 94% 0in /  0.0mm
21:13 28 °F /  -2.2 °C 26.6 °F /  -3.0 °C 30.6in /  1036.1hPa NNE 3.8mph /  6.1km/h 6.3mph /  10.1km/h 94% 0in /  0.0mm
21:18 28 °F /  -2.2 °C 26.6 °F /  -3.0 °C 30.6in /  1036.1hPa NNE 5.4mph /  8.7km/h 6mph /  9.7km/h 94% 0in /  0.0mm
21:23 27.9 °F /  -2.3 °C 26.4 °F /  -3.1 °C 30.6in /  1036.1hPa NE 4.5mph /  7.2km/h 6.5mph /  10.5km/h 94% 0in /  0.0mm
21:28 27.9 °F /  -2.3 °C 26.4 °F /  -3.1 °C 30.6in /  1036.1hPa North 2.9mph /  4.7km/h 6.5mph /  10.5km/h 94% 0in /  0.0mm
21:33 27.9 °F /  -2.3 °C 26.4 °F /  -3.1 °C 30.6in /  1036.1hPa NE 4.7mph /  7.6km/h 5.8mph /  9.3km/h 94% 0in /  0.0mm
21:38 27.9 °F /  -2.3 °C 26.8 °F /  -2.9 °C 30.6in /  1036.1hPa NE 5.6mph /  9.0km/h 6.3mph /  10.1km/h 95% 0in /  0.0mm
21:43 27.9 °F /  -2.3 °C 26.8 °F /  -2.9 °C 30.6in /  1036.1hPa NNE 4.3mph /  6.9km/h 7.6mph /  12.2km/h 95% 0in /  0.0mm
21:48 27.9 °F /  -2.3 °C 26.8 °F /  -2.9 °C 30.6in /  1036.1hPa NNE 4.9mph /  7.9km/h 7.6mph /  12.2km/h 95% 0in /  0.0mm
21:53 27.9 °F /  -2.3 °C 26.8 °F /  -2.9 °C 30.6in /  1036.1hPa NNE 5.4mph /  8.7km/h 7.8mph /  12.6km/h 95% 0in /  0.0mm
21:58 27.9 °F /  -2.3 °C 26.8 °F /  -2.9 °C 30.6in /  1036.1hPa NE 6.5mph /  10.5km/h 7.8mph /  12.6km/h 95% 0in /  0.0mm
22:03 27.9 °F /  -2.3 °C 26.8 °F /  -2.9 °C 30.6in /  1036.1hPa NNE 5.6mph /  9.0km/h 7.8mph /  12.6km/h 95% 0in /  0.0mm
22:08 27.9 °F /  -2.3 °C 26.8 °F /  -2.9 °C 30.6in /  1036.1hPa NE 4.9mph /  7.9km/h 7.8mph /  12.6km/h 95% 0in /  0.0mm
22:13 27.9 °F /  -2.3 °C 27 °F /  -2.8 °C 30.6in /  1036.1hPa NE 3.8mph /  6.1km/h 7.6mph /  12.2km/h 96% 0in /  0.0mm
22:18 27.9 °F /  -2.3 °C 27 °F /  -2.8 °C 30.6in /  1036.1hPa NE 4.9mph /  7.9km/h 7.2mph /  11.6km/h 96% 0in /  0.0mm
22:23 27.9 °F /  -2.3 °C 27 °F /  -2.8 °C 30.6in /  1036.1hPa NE 6.5mph /  10.5km/h 7.8mph /  12.6km/h 96% 0in /  0.0mm
22:28 28 °F /  -2.2 °C 27.1 °F /  -2.7 °C 30.6in /  1036.1hPa ENE 4mph /  6.4km/h 7.8mph /  12.6km/h 96% 0in /  0.0mm
22:33 27.9 °F /  -2.3 °C 27 °F /  -2.8 °C 30.6in /  1036.1hPa NNE 3.8mph /  6.1km/h 6.5mph /  10.5km/h 96% 0in /  0.0mm
22:38 28 °F /  -2.2 °C 27.1 °F /  -2.7 °C 30.6in /  1036.1hPa NE 4.9mph /  7.9km/h 5.8mph /  9.3km/h 96% 0in /  0.0mm
22:43 28 °F /  -2.2 °C 27.1 °F /  -2.7 °C 30.6in /  1036.1hPa NE 3.4mph /  5.5km/h 5.8mph /  9.3km/h 96% 0in /  0.0mm
22:48 28 °F /  -2.2 °C 27.1 °F /  -2.7 °C 30.6in /  1036.1hPa ENE 3.8mph /  6.1km/h 4.9mph /  7.9km/h 96% 0in /  0.0mm
22:53 28 °F /  -2.2 °C 27.1 °F /  -2.7 °C 30.6in /  1036.1hPa NE 5.4mph /  8.7km/h 5.4mph /  8.7km/h 96% 0in /  0.0mm
22:58 28 °F /  -2.2 °C 27.1 °F /  -2.7 °C 30.6in /  1036.1hPa NE 4mph /  6.4km/h 5.4mph /  8.7km/h 96% 0in /  0.0mm
23:03 28 °F /  -2.2 °C 27.1 °F /  -2.7 °C 30.6in /  1036.1hPa NE 4mph /  6.4km/h 6.3mph /  10.1km/h 96% 0in /  0.0mm
23:08 28 °F /  -2.2 °C 27.1 °F /  -2.7 °C 30.6in /  1036.1hPa ENE 4.3mph /  6.9km/h 6.7mph /  10.8km/h 96% 0in /  0.0mm
23:13 28 °F /  -2.2 °C 27.1 °F /  -2.7 °C 30.6in /  1036.1hPa NE 4.9mph /  7.9km/h 6.7mph /  10.8km/h 96% 0in /  0.0mm
23:18 28 °F /  -2.2 °C 27.1 °F /  -2.7 °C 30.6in /  1036.1hPa NE 5.6mph /  9.0km/h 6mph /  9.7km/h 96% 0in /  0.0mm
23:23 27.9 °F /  -2.3 °C 26.8 °F /  -2.9 °C 30.6in /  1036.1hPa NE 4.9mph /  7.9km/h 6mph /  9.7km/h 95% 0in /  0.0mm
23:28 27.9 °F /  -2.3 °C 26.8 °F /  -2.9 °C 30.6in /  1036.1hPa NE 3.6mph /  5.8km/h 5.8mph /  9.3km/h 95% 0in /  0.0mm
23:33 27.9 °F /  -2.3 °C 26.4 °F /  -3.1 °C 30.6in /  1036.1hPa NE 4mph /  6.4km/h 5.8mph /  9.3km/h 95% 0in /  0.0mm
23:38 27.9 °F /  -2.3 °C 26.4 °F /  -3.1 °C 30.6in /  1036.1hPa NE 4mph /  6.4km/h 5.6mph /  9.0km/h 95% 0in /  0.0mm
23:43 27.9 °F /  -2.3 °C 26.4 °F /  -3.1 °C 30.6in /  1036.1hPa ENE 4.3mph /  6.9km/h 5.6mph /  9.0km/h 95% 0in /  0.0mm
23:48 27.7 °F /  -2.4 °C 26.2 °F /  -3.2 °C 30.6in /  1036.1hPa NE 4mph /  6.4km/h 5.6mph /  9.0km/h 95% 0in /  0.0mm
23:53 27.7 °F /  -2.4 °C 26.2 °F /  -3.2 °C 30.6in /  1036.1hPa NE 4mph /  6.4km/h 4.9mph /  7.9km/h 95% 0in /  0.0mm
23:58 27.7 °F /  -2.4 °C 26.2 °F /  -3.2 °C 30.6in /  1036.1hPa NE 4.3mph /  6.9km/h 4.7mph /  7.6km/h 95% 0in /  0.0mm
Données Historique de Météo Turbie

Mise a jour : 24/05/2018 15:46:13
Généré par Cumulus 1.9.4 (1099)